• Join FlightAware (Why Join?)
  • Login
  • US Flag 
11:31PM EDT


 

Airport Tracker/Info


-or-


 

Live Flight TrackerFlight Track Log ✈ AWE1913 ✈ 05-Apr-2013 ✈ KPHL - MYNN / NAS

Flight Track Log - Related Links

Times and Time Zones

All times are in EDT time to prevent confusion due to time zone crossing. See the AWE1913 flight status page for this flight to view local times or setup timezone preferences in your user account.

Time Position Orientation Groundspeed Altitude Reporting Facility
EDT Latitude Longitude Course Direction KTS MPH feet Rate Location/Type
10:07AM 39.8667 -75.2667 185° South 161 185 600  Level Philadelphia TRACON
10:07AM 39.8544 -75.2861 231° Southwest 166 191 1,400 1,920 Climbing FAA TRACON SMA TRACON (SMA)
10:07AM 39.8433 -75.2975 218° Southwest 185 213 1,800 1,020 Climbing FAA TRACON SMA TRACON (SMA)
10:08AM 39.8283 -75.3100 213° Southwest 202 232 2,100 1,620 Climbing FAA TRACON SMA TRACON (SMA)
10:08AM 39.8075 -75.3281 214° Southwest 237 273 2,900 2,220 Climbing FAA TRACON SMA TRACON (SMA)
10:08AM 39.7900 -75.3442 215° Southwest 248 285 3,600 2,100 Climbing FAA TRACON SMA TRACON (SMA)
10:09AM 39.6642 -75.2833 180° South  Level FlightAware Approximate
10:09AM 39.7714 -75.3611 215° Southwest 262 302 4,300  Level FAA TRACON SMA TRACON (SMA)
10:09AM 39.7472 -75.3833 215° Southwest 274 315 5,600 3,720 Climbing FAA TRACON SMA TRACON (SMA)
10:09AM 39.7258 -75.3961 205° Southwest 275 316 6,800 3,420 Climbing FAA TRACON SMA TRACON (SMA)
10:10AM 39.5723 -75.3022 189° South  Level FlightAware Approximate
10:10AM 39.6975 -75.3969 181° South 283 326 7,900  Level FAA TRACON SMA TRACON (SMA)
10:10AM 39.6722 -75.3967 180° South 282 325 8,800 2,520 Climbing FAA TRACON SMA TRACON (SMA)
10:10AM 39.6475 -75.3958 179° South 289 333 9,600 2,700 Climbing FAA TRACON SMA TRACON (SMA)
10:11AM 39.4693 -75.3269 194° South  Level FlightAware Approximate
10:11AM 39.6167 -75.3947 178° South 295 339 10,600  Level FAA TRACON SMA TRACON (SMA)
10:11AM 39.5897 -75.3939 179° South 305 351 11,000 1,200 Climbing FAA TRACON SMA TRACON (SMA)
10:11AM 39.5608 -75.3933 179° South 334 384 11,400 1,200 Climbing FAA TRACON SMA TRACON (SMA)
10:12AM 39.3653 -75.3409 185° South  Level FlightAware Approximate
10:12AM 39.5308 -75.3919 178° South 354 407 11,800  Level FAA TRACON SMA TRACON (SMA)
10:12AM 39.4917 -75.3914 179° South 368 423 12,600 2,400 Climbing FAA TRACON SMA TRACON (SMA)
10:12AM 39.4600 -75.3903 178° South 369 425 13,400 2,220 Climbing FAA TRACON SMA TRACON (SMA)
10:13AM 39.4283 -75.3886 178° South 371 427 14,100 3,000 Climbing FAA TRACON SMA TRACON (SMA)
10:13AM 39.3903 -75.3872 178° South 370 426 15,400 3,120 Climbing FAA TRACON SMA TRACON (SMA)
10:13AM 39.3572 -75.3858 178° South 369 425 16,200 2,220 Climbing FAA TRACON SMA TRACON (SMA)
10:14AM 39.3178 -75.3847 179° South 369 425 16,900 1,200 Climbing FAA TRACON SMA TRACON (SMA)
10:14AM 39.2856 -75.3836 178° South 374 430 17,000 120 Climbing FAA TRACON SMA TRACON (SMA)
10:14AM 39.2531 -75.3822 178° South 377 434 17,000  Level FAA TRACON SMA TRACON (SMA)
10:15AM 39.2439 -75.3817 177° South 378 435 17,000 1,020 Level FAA TRACON SMA TRACON (SMA)
10:16AM 39.0778 -75.4017 185° South 378 435 18,800 1,500 Climbing Washington Center
10:17AM 38.9694 -75.4181 187° South 386 444 20,700 1,980 Climbing Washington Center
10:18AM 38.8611 -75.4369 188° South 391 450 22,800 1,800 Climbing Washington Center
10:19AM 38.7528 -75.4506 186° South 391 450 24,400 1,560 Climbing Washington Center
10:20AM 38.6400 -75.4694 187° South 396 456 26,000 1,800 Climbing Washington Center
10:21AM 38.5339 -75.4881 188° South 401 461 28,000 1,560 Climbing Washington Center
10:22AM 38.4211 -75.4964 183° South 401 461 29,200 960 Climbing Washington Center
10:23AM 38.3192 -75.5336 196° South 396 456 30,000 360 Climbing Washington Center
10:24AM 38.2231 -75.5839 202° Southwest 386 444 30,000  Level Washington Center
10:25AM 38.1314 -75.6444 207° Southwest 376 433 30,000 -60 Level Washington Center
10:26AM 38.0397 -75.7050 207° Southwest 376 433 29,900 240 Descending Washington Center
10:27AM 37.9478 -75.7631 206° Southwest 376 433 30,500 1,800 Climbing Washington Center
10:28AM 37.8600 -75.8181 206° Southwest 366 421 33,600 1,740 Climbing Washington Center
10:29AM 37.7642 -75.8728 204° Southwest 348 400 34,000 180 Climbing Washington Center
10:30AM 37.6972 -75.9172 208° Southwest 335 386 34,000  Level Washington Center
10:31AM 37.6178 -75.9694 208° Southwest 330 380 34,000  Level Washington Center
10:32AM 37.5342 -76.0186 205° Southwest 330 380 34,000  Level Washington Center
10:33AM 37.4528 -76.0681 206° Southwest 330 380 34,000  Level Washington Center
10:34AM 37.3753 -76.1172 207° Southwest 325 374 34,000  Level Washington Center
10:35AM 37.2875 -76.1636 203° Southwest 325 374 34,000  Level Washington Center
10:36AM 37.2081 -76.2125 206° Southwest 325 374 34,000  Level Washington Center
10:37AM 37.1242 -76.2639 206° Southwest 330 380 34,000  Level Washington Center
10:38AM 37.0383 -76.3153 206° Southwest 330 380 34,000  Level Washington Center
10:39AM 36.9567 -76.3639 205° Southwest 335 386 34,000  Level Washington Center
10:40AM 36.8708 -76.4122 204° Southwest 335 386 34,000  Level Washington Center
10:41AM 36.7892 -76.4658 208° Southwest 335 386 34,000  Level Washington Center
10:42AM 36.6992 -76.5142 203° Southwest 335 386 34,000 -60 Level Washington Center
10:43AM 36.6111 -76.5544 200° South 340 391 33,900 -60 Descending Washington Center
10:44AM 36.5253 -76.5947 201° Southwest 334 384 33,900  Level Washington Center
10:45AM 36.4394 -76.6300 198° South 334 384 34,000  Climbing Washington Center
10:46AM 36.3556 -76.6675 200° South 329 379 33,900  Descending Washington Center
10:47AM 36.2697 -76.7075 201° Southwest 329 379 34,000  Climbing Washington Center
10:48AM 36.1861 -76.7425 199° South 329 379 34,000  Level Washington Center
10:49AM 36.1022 -76.7822 201° Southwest 329 379 34,000  Level Washington Center
10:50AM 36.0142 -76.8169 198° South 329 379 34,000 -60 Level Washington Center
10:51AM 35.9325 -76.8542 200° South 329 379 33,900 -60 Descending Washington Center
10:52AM 35.8506 -76.8914 200° South 329 379 33,900  Level Washington Center
10:53AM 35.7667 -76.9283 200° South 329 379 34,000  Climbing Washington Center
10:54AM 35.6808 -76.9653 199° South 329 379 34,000  Level Washington Center
10:55AM 35.6094 -76.9997 201° Southwest 323 372 34,000  Level Washington Center
10:56AM 35.5278 -77.0367 200° South 323 372 34,000  Level Washington Center
10:57AM 35.4417 -77.0733 199° South 323 372 34,000  Level Washington Center
10:58AM 35.3578 -77.1100 200° South 323 372 34,000  Level Washington Center
10:59AM 35.2758 -77.1467 200° South 323 372 34,000  Level Washington Center
11:00AM 35.1919 -77.1856 201° Southwest 328 377 34,000  Level Washington Center
11:01AM 35.1058 -77.2194 198° South 334 384 34,000  Level Washington Center
11:02AM 35.0242 -77.2558 200° South 329 379 34,000  Level Washington Center
11:03AM 34.9381 -77.2922 199° South 329 379 34,000  Level Washington Center
11:04AM 34.8539 -77.3283 199° South 329 379 34,000  Level Washington Center
11:05AM 34.7719 -77.3669 201° Southwest 329 379 34,000  Level Washington Center
11:06AM 34.6861 -77.4031 199° South 329 379 34,000  Level Washington Center
11:07AM 34.6019 -77.4417 201° Southwest 329 379 34,000  Level Washington Center
11:08AM 34.5139 -77.4647 192° South 329 379 34,000  Level Washington Center
11:09AM 34.4261 -77.4856 191° South 324 373 34,000  Level Washington Center
11:10AM 34.3358 -77.5061 191° South 324 373 34,000  Level Washington Center
11:11AM 34.2439 -77.5239 189° South 330 380 34,000  Level Washington Center
11:13AM 34.0556 -77.5639 190° South 350 403 34,000  Level Jacksonville Center
11:14AM 33.9647 -77.5844 191° South 345 397 34,000  Level Jacksonville Center
11:15AM 33.8736 -77.6050 191° South 339 390 34,000  Level Jacksonville Center
11:16AM 33.7808 -77.6281 192° South 339 390 34,000  Level Jacksonville Center
11:17AM 33.6917 -77.6433 188° South 334 384 34,000 -60 Level Jacksonville Center
11:18AM 33.5986 -77.6639 190° South 334 384 33,900  Descending Jacksonville Center
11:19AM 33.5078 -77.6842 191° South 334 384 34,000  Climbing Jacksonville Center
11:20AM 33.4125 -77.7047 190° South 334 384 34,000  Level Jacksonville Center
11:21AM 33.3194 -77.7250 190° South 339 390 34,000 -60 Level Jacksonville Center
11:22AM 33.2242 -77.7431 189° South 344 396 33,900 -60 Descending Jacksonville Center
11:23AM 33.1292 -77.7633 190° South 349 402 33,900  Level Jacksonville Center
11:24AM 33.0342 -77.7861 191° South 349 402 34,000  Climbing Jacksonville Center
11:25AM 32.9367 -77.8067 190° South 349 402 34,000  Level Jacksonville Center
11:26AM 32.8375 -77.8269 190° South 354 407 34,000 -60 Level Jacksonville Center
11:27AM 32.7403 -77.8472 190° South 354 407 33,900  Descending Jacksonville Center
11:28AM 32.6428 -77.8675 190° South 354 407 34,000  Climbing Jacksonville Center
11:29AM 32.5456 -77.8878 190° South 360 414 34,000  Level Jacksonville Center
11:30AM 32.4417 -77.8983 185° South 360 414 34,000  Level Jacksonville Center
11:31AM 32.3408 -77.8842 173° South 366 421 34,000 -60 Level Jacksonville Center
11:32AM 32.2381 -77.8703 173° South 371 427 33,900 -60 Descending Jacksonville Center
11:33AM 32.1333 -77.8611 176° South 371 427 33,900  Level Jacksonville Center
11:34AM 32.0325 -77.8447 172° South 371 427 34,000  Climbing Jacksonville Center
11:35AM 31.9275 -77.8283 172° South 376 433 34,000  Level Jacksonville Center
11:36AM 31.8281 -77.8486 190° South 360 414 34,000  Level Jacksonville Center
11:37AM 31.7317 -77.8881 199° South 366 421 34,000  Level Jacksonville Center
11:38AM 31.6347 -77.9200 196° South 364 419 34,000 -60 Level Jacksonville Center
11:39AM 31.5378 -77.9497 195° South 375 432 33,900  Descending Jacksonville Center
11:40AM 31.4433 -77.9886 199° South 374 430 34,000  Climbing Jacksonville Center
11:41AM 31.3447 -78.0281 199° South 374 430 34,000  Level Jacksonville Center
11:42AM 31.2475 -78.0525 192° South 369 425 34,000  Level Jacksonville Center
11:43AM 31.1506 -78.0864 197° South 369 425 34,000  Level Jacksonville Center
11:44AM 31.0558 -78.1181 196° South 369 425 34,000  Level Jacksonville Center
11:45AM 30.9575 -78.1642 202° Southwest 376 433 34,000  Level Jacksonville Center
11:46AM 30.8625 -78.1956 196° South 370 426 34,000  Level Jacksonville Center
11:47AM 30.7636 -78.2319 198° South 370 426 34,000  Level Jacksonville Center
11:50AM 30.5294 -78.3100 196° South 375 432 34,000  Level Miami Center
11:51AM 30.4372 -78.3447 198° South 377 434 34,000  Level Miami Center
11:52AM 30.3308 -78.3600 187° South 372 428 34,000  Level Miami Center
11:53AM 30.2328 -78.3683 184° South 374 430 34,000  Level Miami Center
11:54AM 30.1264 -78.3717 182° South 367 422 34,000  Level Miami Center
11:55AM 30.0308 -78.3511 169° South 367 422 34,000 -180 Level Miami Center
11:56AM 29.9286 -78.3378 174° South 365 420 33,700 -660 Descending Miami Center
11:57AM 29.8267 -78.3172 170° South 376 433 32,700 -900 Descending Miami Center
11:58AM 29.7186 -78.2919 169° South 383 441 32,000 -360 Descending Miami Center
11:59AM 29.6186 -78.2714 170° South 383 441 32,000  Level Miami Center
12:00PM 29.5147 -78.2486 169° South 383 441 32,000  Level Miami Center
12:01PM 29.4083 -78.2258 169° South 383 441 32,000 -300 Level Miami Center
12:02PM 29.3022 -78.2056 171° South 389 448 31,400 -840 Descending Miami Center
12:03PM 29.1981 -78.1828 169° South 389 448 30,400 -1,020 Descending Miami Center
12:04PM 29.0961 -78.1625 170° South 385 443 29,400 -1,020 Descending Miami Center
12:05PM 28.9919 -78.1425 170° South 393 452 28,400 -1,020 Descending Miami Center
12:06PM 28.8836 -78.1197 170° South 388 447 27,400 -1,020 Descending Miami Center
12:07PM 28.7817 -78.0972 169° South 388 447 26,400 -780 Descending Miami Center
12:08PM 28.6836 -78.0772 170° South 380 437 25,900 -240 Descending Miami Center
12:09PM 28.5794 -78.0572 170° South 380 437 26,000  Climbing Miami Center
12:10PM 28.4794 -78.0350 169° South 370 426 26,000  Level Miami Center
12:11PM 28.3731 -78.0150 171° South 370 426 26,000  Level Miami Center
12:12PM 28.2753 -77.9950 170° South 370 426 26,000  Level Miami Center
12:13PM 28.1731 -77.9728 169° South 370 426 26,000  Level Miami Center
12:14PM 28.0731 -77.9553 171° South 375 432 26,000  Level Miami Center
12:15PM 27.9708 -77.9333 169° South 375 432 26,000 -60 Level Miami Center
12:16PM 27.8561 -77.9133 171° South 381 438 25,900  Descending Miami Center
12:17PM 27.7456 -77.8914 170° South 397 457 26,000  Climbing Miami Center
12:18PM 27.6372 -77.8692 170° South 403 464 26,000 -60 Level Miami Center
12:19PM 27.5289 -77.8447 169° South 410 472 25,900 -60 Descending Miami Center
12:20PM 27.4225 -77.8228 170° South 405 466 25,900 -420 Level Miami Center
12:21PM 27.2972 -77.8078 174° South 411 473 25,100 -480 Descending Miami Center
12:22PM 27.1908 -77.7836 169° South 400 460 25,000 -60 Descending Miami Center
12:23PM 27.0969 -77.7619 168° South 395 455 25,000  Level Miami Center
12:24PM 26.9906 -77.7447 172° South 389 448 25,000 -480 Level Miami Center
12:25PM 26.8861 -77.7228 169° South 389 448 24,100 -540 Descending Miami Center
12:26PM 26.7819 -77.7036 171° South 389 448 24,000 -60 Descending Miami Center
12:27PM 26.6797 -77.6842 170° South 389 448 24,000  Level Miami Center
12:28PM 26.5731 -77.6650 171° South 389 448 24,000 -300 Level Miami Center
12:29PM 26.4689 -77.6408 168° South 389 448 23,400 -900 Descending Miami Center
12:30PM 26.3686 -77.6194 169° South 384 442 22,300 -1,020 Descending Miami Center
12:31PM 26.2728 -77.5981 169° South 365 420 21,400 -960 Descending Miami Center
12:32PM 26.1767 -77.5833 172° South 360 414 20,400 -1,380 Descending Miami Center
12:33PM 26.0828 -77.5667 171° South 350 403 18,700 -1,680 Descending Miami Center
12:34PM 25.9908 -77.5500 171° South 350 403 17,100 -1,500 Descending Miami Center
12:35PM 25.9094 -77.5286 167° South 326 375 15,800 -1,860 Descending Miami Center
12:36PM 25.8300 -77.5144 171° South 309 356 13,400 -1,380 Descending Miami Center
12:37PM 25.7486 -77.5000 171° South 304 350 13,100 -300 Descending Miami Center
12:38PM 25.6692 -77.4883 172° South 292 336 12,900 -840 Descending Miami Center
12:39PM 25.5900 -77.4833 177° South 292 336 11,500 -1,500 Descending Miami Center
12:40PM 25.5125 -77.4781 176° South 292 336 9,900 -1,680 Descending Miami Center
12:41PM 25.4311 -77.4733 177° South 285 328 8,200 -1,740 Descending Miami Center